Главная страница
METAR-TAF:

METAR-TAF

Аэропорты :

Гран-Канария, Испания

широта: 27-56N, долгота: 015-23W, высота над уровнем моря: 23 м

Текущие метеонаблюдения

Эта сводка был подготовлена 21 минут назад, в 00:00 UTC
Ветер 12 Узел от северный
Температура 17°C
Влажность 55%
Давление 1030 hPa
Видимость 10 км и более
Нет облачности ниже 1500 м, и нет кучево-дождевой облачности

METAR: GCLP 180000Z 35012KT CAVOK 17/08 Q1030 NOSIG

Время: 00:21 (00:21 UTC)

Прогноз

Эта сводка был подготовлена 4 часа и 21 минут назад, в 20:00 UTC
Прогноз действительный с 17-го 21 UTC до 18-го 21 UTC
Ветер 11 Узел от северно-северо-западный
Видимость 10 км и более
Нет облачности ниже 1500 м, и нет кучево-дождевой облачности
изменения
С 18-го 09 UTC до 18-го 11 UTC
Ветер 6 Узел от восточный
изменения
С 18-го 17 UTC до 18-го 20 UTC
Ветер 11 Узел от северно-северо-западный

TAF: GCLP 172000Z 1721/1821 34011KT CAVOK TX21/1815Z TN15/1806Z BECMG 1809/1811 09006KT BECMG 1817/1820 34011KT

Метеонаблюдения и прогнозы для более 4000 аэропортов (сводки METAR и TAF).

Имеющиеся станции представлены на карте желтыми и красными точками.

Чтобы увидеть название станции, наведите на нее мышь.

Затем щелкните, чтобы увидеть метеонаблюдения и метеопрогнозы.

Управление картой: чтобы увеличить масштаб, щелкните зеленые кнопки с черным крестиком; чтобы уменьшить масштаб, щелкните зеленую кнопку с тире; для просмотра соседних карт щелкайте зеленые стрелки.


METAR-TAF: